createdAt,value
2017-08-30T00:00:51.430Z,70.79
2017-08-30T00:03:19.339Z,71.11
2017-08-30T00:05:47.267Z,71.33
2017-08-30T00:08:15.177Z,71.47
2017-08-30T00:10:43.108Z,71.70
2017-08-30T00:13:11.012Z,71.71
2017-08-30T00:15:39.038Z,71.87
2017-08-30T00:18:06.954Z,72.06
2017-08-30T00:20:34.878Z,72.13
2017-08-30T00:23:02.803Z,72.26
2017-08-30T00:25:42.661Z,71.87
2017-08-30T00:28:10.592Z,72.36
2017-08-30T00:30:38.498Z,72.86
2017-08-30T00:33:06.436Z,73.01
2017-08-30T00:35:34.380Z,72.99
2017-08-30T00:38:02.287Z,73.04
2017-08-30T00:40:30.213Z,72.74
2017-08-30T00:42:58.144Z,73.00
2017-08-30T00:45:26.056Z,73.41
2017-08-30T00:47:53.992Z,73.67
2017-08-30T00:50:21.918Z,73.85
2017-08-30T00:52:50.233Z,73.24
2017-08-30T00:55:18.241Z,73.40
2017-08-30T00:57:46.419Z,73.59
2017-08-30T01:00:14.407Z,73.65
2017-08-30T01:02:42.341Z,73.77
2017-08-30T01:05:10.263Z,74.04
2017-08-30T01:07:38.191Z,73.88
2017-08-30T01:10:06.090Z,74.04
2017-08-30T01:12:34.010Z,74.29
2017-08-30T01:15:01.949Z,74.33
2017-08-30T01:17:29.858Z,74.65
2017-08-30T01:19:57.785Z,74.36
2017-08-30T01:22:25.707Z,74.25
2017-08-30T01:24:53.622Z,74.44
2017-08-30T01:27:21.538Z,74.67
2017-08-30T01:29:49.464Z,74.44
2017-08-30T01:32:17.465Z,74.41
2017-08-30T01:34:45.381Z,74.80
2017-08-30T01:37:13.296Z,74.81
2017-08-30T01:39:41.226Z,74.96
2017-08-30T01:42:09.139Z,75.26
2017-08-30T01:44:37.046Z,75.56
2017-08-30T01:47:04.974Z,75.68
2017-08-30T01:49:32.891Z,75.40
2017-08-30T01:52:00.823Z,75.48
2017-08-30T01:54:28.742Z,75.80
2017-08-30T01:56:56.666Z,76.02
2017-08-30T01:59:24.572Z,75.99
2017-08-30T02:01:52.490Z,75.97
2017-08-30T02:04:20.407Z,76.39
2017-08-30T02:06:48.356Z,76.69
2017-08-30T02:09:16.255Z,76.73
2017-08-30T02:11:44.382Z,76.77
2017-08-30T02:14:12.313Z,76.93
2017-08-30T02:16:40.230Z,76.87
2017-08-30T02:19:08.173Z,76.94
2017-08-30T02:21:36.075Z,76.97
2017-08-30T02:24:04.003Z,76.98
2017-08-30T02:26:31.919Z,77.17
2017-08-30T02:28:59.828Z,77.08
2017-08-30T02:31:27.738Z,76.92
2017-08-30T02:33:55.654Z,76.98
2017-08-30T02:36:23.569Z,77.08
2017-08-30T02:38:51.496Z,77.10
2017-08-30T02:41:19.424Z,77.24
2017-08-30T02:43:47.475Z,77.15
2017-08-30T02:46:15.405Z,77.21
2017-08-30T02:48:43.337Z,77.14
2017-08-30T02:51:11.258Z,77.65
2017-08-30T02:53:39.204Z,77.71
2017-08-30T02:56:07.111Z,77.66
2017-08-30T02:58:35.033Z,77.72
2017-08-30T03:01:03.011Z,77.93
2017-08-30T03:03:30.931Z,77.75
2017-08-30T03:05:58.849Z,77.90
2017-08-30T03:08:26.754Z,77.79
2017-08-30T03:10:54.676Z,77.73
2017-08-30T03:13:22.600Z,78.08
2017-08-30T03:15:50.508Z,78.24
2017-08-30T03:18:18.436Z,78.31
2017-08-30T03:20:46.523Z,78.45
2017-08-30T03:23:14.443Z,78.55
2017-08-30T03:25:42.351Z,78.38
2017-08-30T03:28:10.267Z,78.53
2017-08-30T03:30:38.171Z,78.34
2017-08-30T03:33:06.093Z,78.53
2017-08-30T03:35:34.030Z,78.22
2017-08-30T03:38:01.960Z,78.34
2017-08-30T03:40:29.872Z,78.59
2017-08-30T03:42:57.789Z,78.71
2017-08-30T03:45:25.695Z,78.77
2017-08-30T03:47:53.610Z,78.18
2017-08-30T03:50:21.778Z,78.48
2017-08-30T03:52:50.017Z,79.05
2017-08-30T03:55:17.935Z,79.08
2017-08-30T03:57:45.846Z,79.56
2017-08-30T04:00:13.774Z,79.81
2017-08-30T04:02:41.684Z,79.52
2017-08-30T04:05:09.598Z,79.21
2017-08-30T04:07:37.499Z,79.13
2017-08-30T04:10:05.453Z,79.40
2017-08-30T04:12:33.376Z,79.57
2017-08-30T04:15:01.311Z,79.67
2017-08-30T04:17:29.220Z,79.56
2017-08-30T04:19:57.154Z,79.73
2017-08-30T04:22:25.078Z,79.45
2017-08-30T04:24:52.997Z,79.45
2017-08-30T04:27:20.913Z,79.37
2017-08-30T04:29:48.825Z,78.94
2017-08-30T04:32:16.740Z,79.09
2017-08-30T04:34:44.650Z,79.13
2017-08-30T04:37:12.558Z,79.22
2017-08-30T04:39:40.665Z,79.06
2017-08-30T04:42:08.594Z,78.97
2017-08-30T04:44:36.527Z,78.65
2017-08-30T04:47:04.430Z,78.48
2017-08-30T04:49:32.349Z,78.59
2017-08-30T04:52:00.623Z,78.23
2017-08-30T04:54:28.547Z,77.80
2017-08-30T04:56:56.627Z,76.28
2017-08-30T04:59:24.546Z,73.55
2017-08-30T05:01:52.451Z,71.03
2017-08-30T05:04:20.368Z,68.60
2017-08-30T05:06:48.268Z,66.24
2017-08-30T05:09:16.200Z,64.29
2017-08-30T05:11:44.110Z,63.07
2017-08-30T05:14:12.040Z,61.39
2017-08-30T05:16:39.954Z,59.83
2017-08-30T05:19:07.875Z,58.70
2017-08-30T05:21:35.777Z,56.84
2017-08-30T05:24:03.711Z,55.76
2017-08-30T05:26:31.634Z,55.25
2017-08-30T05:28:59.546Z,53.87
2017-08-30T05:31:27.446Z,52.94
2017-08-30T05:33:55.662Z,52.59
2017-08-30T05:36:23.575Z,51.58
2017-08-30T05:38:51.498Z,50.46
2017-08-30T05:41:19.433Z,49.09
2017-08-30T05:43:47.356Z,48.68
2017-08-30T05:46:15.288Z,48.25
2017-08-30T05:48:43.208Z,47.41
2017-08-30T05:51:11.138Z,46.83
2017-08-30T05:53:39.056Z,46.85
2017-08-30T05:56:06.970Z,45.58
2017-08-30T05:58:34.875Z,44.68
2017-08-30T06:01:02.798Z,44.30
2017-08-30T06:03:30.706Z,44.14
2017-08-30T06:05:58.875Z,43.47
2017-08-30T06:08:26.795Z,43.11
2017-08-30T06:10:54.705Z,41.04
2017-08-30T06:13:22.628Z,40.35
2017-08-30T06:15:50.534Z,40.94
2017-08-30T06:18:18.455Z,40.97
2017-08-30T06:20:46.377Z,40.62
2017-08-30T06:23:14.300Z,39.45
2017-08-30T06:25:42.202Z,39.72
2017-08-30T06:28:10.143Z,39.28
2017-08-30T06:30:38.056Z,38.40
2017-08-30T06:33:05.991Z,38.10
2017-08-30T06:35:33.890Z,36.70
2017-08-30T06:38:01.919Z,35.61
2017-08-30T06:40:29.833Z,34.44
2017-08-30T06:42:57.765Z,34.21
2017-08-30T06:45:25.667Z,34.43
2017-08-30T06:47:53.745Z,33.83
2017-08-30T06:50:21.654Z,33.96
2017-08-30T06:52:49.560Z,32.66
2017-08-30T06:55:17.550Z,32.96
2017-08-30T06:57:45.472Z,32.56
2017-08-30T07:00:13.392Z,30.83
2017-08-30T07:02:41.304Z,31.56
2017-08-30T07:05:09.226Z,30.44
2017-08-30T07:07:37.150Z,30.93
2017-08-30T07:10:05.068Z,30.88
2017-08-30T07:12:33.006Z,31.21
2017-08-30T07:15:00.929Z,30.63
2017-08-30T07:17:28.835Z,31.32
2017-08-30T07:19:56.756Z,30.64
2017-08-30T07:22:24.674Z,30.18
2017-08-30T07:24:52.592Z,30.27
2017-08-30T07:27:20.519Z,28.73
2017-08-30T07:29:48.432Z,26.29
2017-08-30T07:32:16.358Z,26.14
2017-08-30T07:34:44.286Z,26.76
2017-08-30T07:37:12.206Z,28.00
2017-08-30T07:39:40.116Z,28.33
2017-08-30T07:42:08.047Z,28.54
2017-08-30T07:44:35.951Z,28.50
2017-08-30T07:47:03.986Z,28.30
2017-08-30T07:49:31.912Z,28.81
2017-08-30T07:51:59.828Z,30.12
2017-08-30T07:54:27.758Z,29.37
2017-08-30T07:56:55.680Z,30.15
2017-08-30T07:59:23.599Z,30.11
2017-08-30T08:01:51.511Z,30.02
2017-08-30T08:04:19.432Z,29.91
2017-08-30T08:06:47.339Z,29.65
2017-08-30T08:09:15.262Z,29.88
2017-08-30T08:11:43.185Z,29.96
2017-08-30T08:14:11.107Z,29.27
2017-08-30T08:16:39.018Z,29.70
2017-08-30T08:19:06.953Z,30.69
2017-08-30T08:21:34.874Z,29.10
2017-08-30T08:24:02.795Z,28.32
2017-08-30T08:26:30.709Z,28.64
2017-08-30T08:28:58.636Z,28.50
2017-08-30T08:31:26.550Z,28.94
2017-08-30T08:33:54.477Z,28.31
2017-08-30T08:36:22.426Z,28.75
2017-08-30T08:38:50.368Z,28.65
2017-08-30T08:41:18.297Z,29.68
2017-08-30T08:43:46.293Z,29.63
2017-08-30T08:46:14.229Z,29.49
2017-08-30T08:48:42.122Z,27.39
2017-08-30T08:51:10.074Z,26.92
2017-08-30T08:53:37.995Z,25.52
2017-08-30T08:56:05.915Z,25.71
2017-08-30T08:58:33.844Z,25.78
2017-08-30T09:01:01.752Z,25.55
2017-08-30T09:03:30.046Z,25.21
2017-08-30T09:05:57.942Z,25.53
2017-08-30T09:08:25.859Z,26.24
2017-08-30T09:10:54.154Z,25.71
2017-08-30T09:13:22.084Z,26.04
2017-08-30T09:15:50.294Z,25.53
2017-08-30T09:18:18.536Z,24.34
2017-08-30T09:20:46.449Z,24.01
2017-08-30T09:23:14.360Z,23.58
2017-08-30T09:25:42.485Z,23.17
2017-08-30T09:28:10.431Z,24.36
2017-08-30T09:30:38.377Z,24.21
2017-08-30T09:33:06.627Z,24.75
2017-08-30T09:35:34.553Z,25.16
2017-08-30T09:38:02.467Z,25.34
2017-08-30T09:40:30.426Z,24.34
2017-08-30T09:42:58.348Z,24.79
2017-08-30T09:45:26.264Z,25.73
2017-08-30T09:47:54.189Z,25.87
2017-08-30T09:50:22.130Z,25.71
2017-08-30T09:52:50.041Z,24.68
2017-08-30T09:55:17.967Z,25.03
2017-08-30T09:57:45.888Z,24.29
2017-08-30T10:00:13.793Z,23.87
2017-08-30T10:02:42.180Z,23.51
2017-08-30T10:05:10.081Z,23.45
2017-08-30T10:07:38.007Z,22.41
2017-08-30T10:10:05.946Z,22.87
2017-08-30T10:12:33.864Z,23.38
2017-08-30T10:15:01.796Z,22.18
2017-08-30T10:17:29.732Z,22.93
2017-08-30T10:19:57.643Z,23.06
2017-08-30T10:22:25.564Z,22.19
2017-08-30T10:24:53.503Z,22.49
2017-08-30T10:27:21.416Z,22.43
2017-08-30T10:29:49.361Z,22.40
2017-08-30T10:32:17.287Z,24.20
2017-08-30T10:34:45.376Z,24.46
2017-08-30T10:37:13.299Z,25.37
2017-08-30T10:39:41.208Z,25.40
2017-08-30T10:42:09.131Z,25.00
2017-08-30T10:44:37.032Z,25.57
2017-08-30T10:47:04.959Z,25.14
2017-08-30T10:49:33.053Z,25.00
2017-08-30T10:52:01.013Z,24.72
2017-08-30T10:54:28.941Z,24.90
2017-08-30T10:56:56.869Z,24.79
2017-08-30T10:59:24.776Z,25.86
2017-08-30T11:01:52.702Z,26.09
2017-08-30T11:04:21.094Z,25.29
2017-08-30T11:06:49.476Z,26.43
2017-08-30T11:09:17.861Z,26.36
2017-08-30T11:11:45.796Z,26.62
2017-08-30T11:14:14.159Z,26.56
2017-08-30T11:16:42.076Z,28.69
2017-08-30T11:19:10.000Z,29.86
2017-08-30T11:21:37.949Z,30.10
2017-08-30T11:24:06.102Z,30.75
2017-08-30T11:26:34.026Z,31.11
2017-08-30T11:29:01.947Z,32.27
2017-08-30T11:31:29.839Z,33.04
2017-08-30T11:33:57.794Z,33.05
2017-08-30T11:36:25.961Z,33.11
2017-08-30T11:38:53.900Z,33.42
2017-08-30T11:41:21.854Z,33.70
2017-08-30T11:43:49.803Z,33.88
2017-08-30T11:46:17.720Z,33.51
2017-08-30T11:48:45.655Z,33.30
2017-08-30T11:51:13.575Z,33.67
2017-08-30T11:53:41.773Z,34.08
2017-08-30T11:56:09.687Z,34.87
2017-08-30T11:58:37.612Z,34.54
2017-08-30T12:01:05.522Z,34.35
2017-08-30T12:03:33.545Z,34.20
2017-08-30T12:06:01.472Z,34.23
2017-08-30T12:08:29.396Z,34.15
2017-08-30T12:10:58.024Z,34.36
2017-08-30T12:13:25.925Z,34.32
2017-08-30T12:15:53.834Z,34.26
2017-08-30T12:18:21.752Z,34.13
2017-08-30T12:20:49.676Z,33.84
2017-08-30T12:23:17.595Z,33.93
2017-08-30T12:25:45.527Z,33.82
2017-08-30T12:28:13.444Z,33.56
2017-08-30T12:30:41.367Z,33.63
2017-08-30T12:33:09.269Z,33.71
2017-08-30T12:35:37.195Z,33.49
2017-08-30T12:38:10.571Z,33.65
2017-08-30T12:40:38.680Z,33.68
2017-08-30T12:43:06.598Z,33.49
2017-08-30T12:45:34.514Z,33.01
2017-08-30T12:48:02.439Z,32.80
2017-08-30T12:50:30.343Z,32.94
2017-08-30T12:52:58.287Z,33.37
2017-08-30T12:55:26.210Z,33.86
2017-08-30T12:57:54.123Z,33.77
2017-08-30T13:00:22.023Z,32.54
2017-08-30T13:02:49.949Z,32.29
2017-08-30T13:05:17.854Z,32.63
2017-08-30T13:07:46.027Z,32.65
2017-08-30T13:10:13.951Z,32.43
2017-08-30T13:12:41.860Z,32.79
2017-08-30T13:15:09.908Z,32.17
2017-08-30T13:17:37.813Z,32.83
2017-08-30T13:20:06.016Z,33.15
2017-08-30T13:22:33.936Z,33.09
2017-08-30T13:25:01.860Z,34.04
2017-08-30T13:27:29.774Z,33.33
2017-08-30T13:29:57.678Z,33.61
2017-08-30T13:32:25.586Z,33.56
2017-08-30T13:34:53.525Z,33.41
2017-08-30T13:37:21.422Z,33.39
2017-08-30T13:39:49.386Z,33.10
2017-08-30T13:42:17.352Z,33.10
2017-08-30T13:44:45.257Z,33.56
2017-08-30T13:47:13.211Z,33.61
2017-08-30T13:49:41.112Z,33.62
2017-08-30T13:52:09.030Z,33.72
2017-08-30T13:54:36.938Z,33.56
2017-08-30T13:57:05.156Z,33.68
2017-08-30T13:59:33.062Z,33.94
2017-08-30T14:02:00.971Z,34.03
2017-08-30T14:04:28.904Z,33.88
2017-08-30T14:06:56.802Z,33.75
2017-08-30T14:09:24.728Z,33.85
2017-08-30T14:11:52.654Z,34.00
2017-08-30T14:14:20.597Z,34.29
2017-08-30T14:16:48.502Z,34.00
2017-08-30T14:19:16.522Z,34.97
2017-08-30T14:21:44.444Z,35.23
2017-08-30T14:24:12.372Z,35.28
2017-08-30T14:26:40.304Z,34.92
2017-08-30T14:29:08.218Z,34.91
2017-08-30T14:31:36.237Z,35.12
2017-08-30T14:34:04.156Z,35.11
2017-08-30T14:36:32.102Z,34.95
2017-08-30T14:39:00.044Z,34.05
2017-08-30T14:41:27.959Z,33.96
2017-08-30T14:43:55.862Z,33.68
2017-08-30T14:46:23.791Z,33.92
2017-08-30T14:48:51.712Z,33.83
2017-08-30T14:51:19.899Z,33.54
2017-08-30T14:53:47.808Z,33.53
2017-08-30T14:56:15.711Z,34.03
2017-08-30T14:58:43.648Z,33.79
2017-08-30T15:01:11.568Z,34.05
2017-08-30T15:03:39.479Z,34.19
2017-08-30T15:06:07.405Z,34.51
2017-08-30T15:08:35.742Z,35.10
2017-08-30T15:11:03.659Z,34.91
2017-08-30T15:13:31.561Z,35.08
2017-08-30T15:15:59.488Z,35.12
2017-08-30T15:18:27.405Z,34.62
2017-08-30T15:20:55.348Z,35.17
2017-08-30T15:23:23.259Z,35.23
2017-08-30T15:25:51.180Z,35.54
2017-08-30T15:28:19.110Z,36.17
2017-08-30T15:30:47.104Z,36.54
2017-08-30T15:33:15.006Z,36.53
2017-08-30T15:35:43.092Z,36.64
2017-08-30T15:38:10.987Z,36.91
2017-08-30T15:40:38.891Z,37.10
2017-08-30T15:43:06.819Z,36.87
2017-08-30T15:45:34.735Z,37.23
2017-08-30T15:48:02.982Z,37.24
2017-08-30T15:50:30.875Z,37.40
2017-08-30T15:52:58.783Z,37.59
2017-08-30T15:55:26.711Z,37.42
2017-08-30T15:57:54.641Z,37.50
2017-08-30T16:00:22.548Z,37.79
2017-08-30T16:02:50.647Z,38.20
2017-08-30T16:05:18.583Z,38.06
2017-08-30T16:07:47.379Z,37.98
2017-08-30T16:10:15.316Z,38.09
2017-08-30T16:12:43.224Z,38.46
2017-08-30T16:15:11.145Z,38.60
2017-08-30T16:17:39.089Z,38.28
2017-08-30T16:20:07.024Z,38.92
2017-08-30T16:22:34.945Z,38.99
2017-08-30T16:25:02.871Z,38.99
2017-08-30T16:27:30.776Z,38.93
2017-08-30T16:29:58.718Z,39.03
2017-08-30T16:32:26.622Z,39.04
2017-08-30T16:34:54.674Z,39.22
2017-08-30T16:37:22.655Z,39.42
2017-08-30T16:39:50.576Z,39.27
2017-08-30T16:42:18.592Z,39.41
2017-08-30T16:44:46.524Z,39.50
2017-08-30T16:47:14.457Z,39.61
2017-08-30T16:49:42.364Z,39.48
2017-08-30T16:52:10.283Z,39.71
2017-08-30T16:54:38.196Z,39.78
2017-08-30T16:57:06.112Z,39.88
2017-08-30T16:59:34.068Z,40.24
2017-08-30T17:02:01.986Z,40.33
2017-08-30T17:04:29.892Z,40.58
2017-08-30T17:06:57.937Z,40.68
2017-08-30T17:09:25.854Z,40.70
2017-08-30T17:11:53.766Z,40.74
2017-08-30T17:14:27.593Z,40.89
2017-08-30T17:16:55.517Z,40.98
2017-08-30T17:19:23.426Z,41.22
2017-08-30T17:21:51.369Z,41.42
2017-08-30T17:24:19.288Z,41.54
2017-08-30T17:26:47.373Z,41.47
2017-08-30T17:29:15.292Z,41.70
2017-08-30T17:31:43.219Z,41.80
2017-08-30T17:34:11.140Z,41.68
2017-08-30T17:36:39.056Z,41.75
2017-08-30T17:39:07.004Z,41.73
2017-08-30T17:41:34.913Z,41.92
2017-08-30T17:44:02.860Z,42.13
2017-08-30T17:46:30.800Z,42.16
2017-08-30T17:48:58.731Z,42.11
2017-08-30T17:51:26.656Z,42.34
2017-08-30T17:53:54.694Z,42.57
2017-08-30T17:56:22.611Z,42.73
2017-08-30T17:58:50.523Z,43.00
2017-08-30T18:01:18.456Z,43.01
2017-08-30T18:03:46.651Z,43.16
2017-08-30T18:06:14.584Z,43.17
2017-08-30T18:08:42.496Z,43.26
2017-08-30T18:11:10.419Z,43.44
2017-08-30T18:13:38.364Z,43.57
2017-08-30T18:16:06.292Z,43.70
2017-08-30T18:18:34.198Z,43.87
2017-08-30T18:21:02.116Z,44.07
2017-08-30T18:23:30.043Z,44.16
2017-08-30T18:25:58.220Z,44.28
2017-08-30T18:28:26.192Z,44.69
2017-08-30T18:30:54.208Z,44.58
2017-08-30T18:33:22.120Z,44.63
2017-08-30T18:35:50.033Z,44.79
2017-08-30T18:38:17.956Z,44.86
2017-08-30T18:40:45.873Z,44.99
2017-08-30T18:43:13.794Z,45.11
2017-08-30T18:45:41.705Z,45.04
2017-08-30T18:48:09.645Z,45.47
2017-08-30T18:50:37.873Z,45.45
2017-08-30T18:53:05.817Z,45.38
2017-08-30T18:55:33.727Z,45.51
2017-08-30T18:58:01.662Z,45.61
2017-08-30T19:00:29.600Z,45.63
2017-08-30T19:02:57.792Z,45.68
2017-08-30T19:05:25.718Z,45.66
2017-08-30T19:07:53.623Z,45.79
2017-08-30T19:10:21.559Z,45.84
2017-08-30T19:12:49.459Z,45.86
2017-08-30T19:15:17.393Z,45.91
2017-08-30T19:17:45.404Z,45.91
2017-08-30T19:20:13.328Z,46.14
2017-08-30T19:22:41.244Z,46.19
2017-08-30T19:25:09.311Z,46.20
2017-08-30T19:27:37.309Z,46.46
2017-08-30T19:30:05.214Z,46.60
2017-08-30T19:32:33.137Z,46.67
2017-08-30T19:35:01.031Z,46.76
2017-08-30T19:37:29.053Z,47.14
2017-08-30T19:39:56.953Z,47.07
2017-08-30T19:42:24.858Z,47.24
2017-08-30T19:44:52.761Z,47.30
2017-08-30T19:47:20.665Z,47.36
2017-08-30T19:49:48.571Z,47.52
2017-08-30T19:52:16.602Z,47.47
2017-08-30T19:54:44.511Z,47.58
2017-08-30T19:57:12.461Z,47.79
2017-08-30T19:59:40.403Z,47.93
2017-08-30T20:02:08.342Z,48.01
2017-08-30T20:04:36.371Z,48.04
2017-08-30T20:07:04.295Z,48.18
2017-08-30T20:09:32.208Z,48.35
2017-08-30T20:12:00.120Z,48.51
2017-08-30T20:14:28.052Z,48.50
2017-08-30T20:16:55.973Z,48.69
2017-08-30T20:19:23.892Z,48.78
2017-08-30T20:21:51.809Z,48.79
2017-08-30T20:24:19.833Z,49.09
2017-08-30T20:26:47.747Z,49.24
2017-08-30T20:29:15.653Z,49.37
2017-08-30T20:31:43.574Z,49.31
2017-08-30T20:34:11.479Z,49.40
2017-08-30T20:36:39.400Z,49.51
2017-08-30T20:39:07.315Z,49.62
2017-08-30T20:41:35.249Z,49.57
2017-08-30T20:44:03.164Z,49.77
2017-08-30T20:46:31.144Z,49.84
2017-08-30T20:48:59.077Z,50.08
2017-08-30T20:51:27.009Z,50.12
2017-08-30T20:53:54.969Z,50.20
2017-08-30T20:56:22.892Z,50.36
2017-08-30T20:58:50.807Z,50.47
2017-08-30T21:01:18.914Z,50.71
2017-08-30T21:03:46.814Z,50.99
2017-08-30T21:06:14.728Z,50.87
2017-08-30T21:08:42.661Z,50.99
2017-08-30T21:11:10.571Z,51.05
2017-08-30T21:13:38.514Z,51.57
2017-08-30T21:16:06.446Z,51.49
2017-08-30T21:18:34.372Z,51.58
2017-08-30T21:21:02.312Z,51.61
2017-08-30T21:23:30.236Z,51.97
2017-08-30T21:25:58.127Z,52.04
2017-08-30T21:28:26.056Z,52.29
2017-08-30T21:30:54.481Z,52.29
2017-08-30T21:33:22.490Z,52.50
2017-08-30T21:35:50.401Z,52.62
2017-08-30T21:38:18.461Z,52.56
2017-08-30T21:40:46.369Z,52.64
2017-08-30T21:43:14.276Z,52.72
2017-08-30T21:45:42.207Z,52.81
2017-08-30T21:48:10.109Z,52.87
2017-08-30T21:50:38.159Z,53.04
2017-08-30T21:53:06.067Z,53.11
2017-08-30T21:55:33.988Z,53.15
2017-08-30T21:58:02.150Z,53.12
2017-08-30T22:00:30.078Z,53.49
2017-08-30T22:02:57.982Z,53.45
2017-08-30T22:05:25.899Z,53.73
2017-08-30T22:07:53.820Z,53.77
2017-08-30T22:10:21.738Z,54.08
2017-08-30T22:12:49.669Z,53.99
2017-08-30T22:15:17.597Z,53.81
2017-08-30T22:17:45.516Z,53.91
2017-08-30T22:20:13.422Z,53.74
2017-08-30T22:22:41.332Z,53.83
2017-08-30T22:25:09.240Z,53.80
2017-08-30T22:27:37.155Z,53.97
2017-08-30T22:30:05.064Z,54.15
2017-08-30T22:32:33.166Z,53.83
2017-08-30T22:35:01.091Z,53.97
2017-08-30T22:37:29.002Z,53.89
2017-08-30T22:39:56.910Z,53.52
2017-08-30T22:42:24.833Z,53.19
2017-08-30T22:44:52.742Z,53.36
2017-08-30T22:47:20.642Z,52.96
2017-08-30T22:49:48.546Z,53.19
2017-08-30T22:52:16.441Z,53.65
2017-08-30T22:54:44.364Z,53.30
2017-08-30T22:57:12.268Z,53.77
2017-08-30T22:59:40.185Z,54.25
2017-08-30T23:02:08.100Z,54.45
2017-08-30T23:04:36.007Z,53.94
2017-08-30T23:07:03.926Z,53.94
2017-08-30T23:09:32.209Z,54.23
2017-08-30T23:12:00.432Z,54.24
2017-08-30T23:14:28.361Z,54.42
2017-08-30T23:16:56.266Z,54.20
2017-08-30T23:19:24.180Z,54.15
2017-08-30T23:21:52.091Z,54.17
2017-08-30T23:24:19.983Z,54.17
2017-08-30T23:26:47.906Z,54.07
2017-08-30T23:29:15.812Z,53.83
2017-08-30T23:31:43.722Z,53.70
2017-08-30T23:34:11.614Z,53.55
2017-08-30T23:36:39.533Z,53.58
2017-08-30T23:39:07.439Z,53.54
2017-08-30T23:41:35.511Z,53.41
2017-08-30T23:44:03.455Z,53.41
2017-08-30T23:46:31.368Z,53.30
2017-08-30T23:48:59.278Z,53.48
2017-08-30T23:51:27.301Z,53.30
2017-08-30T23:53:55.220Z,53.08
2017-08-30T23:56:23.381Z,53.13
2017-08-30T23:58:51.290Z,53.26
